sensor_id;sensor_type;location;lat;lon;timestamp;pressure;altitude;pressure_sealevel;temperature;humidity
76026;BME280;64721;51.084;17.242;2022-11-20T00:00:57;999.64;;;-4.09;72.85
76026;BME280;64721;51.084;17.242;2022-11-20T00:03:09;999.67;;;-4.07;72.94
76026;BME280;64721;51.084;17.242;2022-11-20T00:05:20;999.66;;;-4.05;72.87
76026;BME280;64721;51.084;17.242;2022-11-20T00:07:06;999.64;;;-4.07;72.99
76026;BME280;64721;51.084;17.242;2022-11-20T00:09:03;999.64;;;-4.12;72.97
76026;BME280;64721;51.084;17.242;2022-11-20T00:12:43;999.63;;;-4.12;72.85
76026;BME280;64721;51.084;17.242;2022-11-20T00:14:41;999.57;;;-4.18;72.89
76026;BME280;64721;51.084;17.242;2022-11-20T00:16:32;999.55;;;-4.23;73.02
76026;BME280;64721;51.084;17.242;2022-11-20T00:18:31;999.60;;;-4.29;73.16
76026;BME280;64721;51.084;17.242;2022-11-20T00:20:17;999.58;;;-4.29;73.11
76026;BME280;64721;51.084;17.242;2022-11-20T00:22:19;999.54;;;-4.32;73.09
76026;BME280;64721;51.084;17.242;2022-11-20T00:24:17;999.52;;;-4.29;73.08
76026;BME280;64721;51.084;17.242;2022-11-20T00:26:16;999.55;;;-4.28;72.94
76026;BME280;64721;51.084;17.242;2022-11-20T00:28:14;999.57;;;-4.31;72.92
76026;BME280;64721;51.084;17.242;2022-11-20T00:31:58;999.57;;;-4.31;72.91
76026;BME280;64721;51.084;17.242;2022-11-20T00:35:30;999.57;;;-4.37;72.75
76026;BME280;64721;51.084;17.242;2022-11-20T00:37:16;999.58;;;-4.39;72.89
76026;BME280;64721;51.084;17.242;2022-11-20T00:39:15;999.58;;;-4.42;73.04
76026;BME280;64721;51.084;17.242;2022-11-20T00:41:01;999.53;;;-4.46;73.24
76026;BME280;64721;51.084;17.242;2022-11-20T00:42:59;999.58;;;-4.46;73.13
76026;BME280;64721;51.084;17.242;2022-11-20T00:44:44;999.57;;;-4.46;73.29
76026;BME280;64721;51.084;17.242;2022-11-20T00:46:56;999.61;;;-4.51;73.24
76026;BME280;64721;51.084;17.242;2022-11-20T00:48:47;999.54;;;-4.45;73.23
76026;BME280;64721;51.084;17.242;2022-11-20T00:50:58;999.59;;;-4.50;73.34
76026;BME280;64721;51.084;17.242;2022-11-20T00:52:57;999.62;;;-4.54;73.29
76026;BME280;64721;51.084;17.242;2022-11-20T00:54:41;999.61;;;-4.54;73.38
76026;BME280;64721;51.084;17.242;2022-11-20T00:56:40;999.65;;;-4.54;73.34
76026;BME280;64721;51.084;17.242;2022-11-20T00:58:29;999.64;;;-4.55;73.36
76026;BME280;64721;51.084;17.242;2022-11-20T01:00:42;999.69;;;-4.64;73.37
76026;BME280;64721;51.084;17.242;2022-11-20T01:02:41;999.76;;;-4.66;73.60
76026;BME280;64721;51.084;17.242;2022-11-20T01:04:25;999.74;;;-4.60;73.48
76026;BME280;64721;51.084;17.242;2022-11-20T01:06:11;999.77;;;-4.60;73.35
76026;BME280;64721;51.084;17.242;2022-11-20T01:07:56;999.75;;;-4.62;73.45
76026;BME280;64721;51.084;17.242;2022-11-20T01:10:15;999.78;;;-4.60;73.28
76026;BME280;64721;51.084;17.242;2022-11-20T01:12:13;999.75;;;-4.66;73.58
76026;BME280;64721;51.084;17.242;2022-11-20T01:14:13;999.78;;;-4.61;73.52
76026;BME280;64721;51.084;17.242;2022-11-20T01:16:20;999.73;;;-4.60;73.44
76026;BME280;64721;51.084;17.242;2022-11-20T01:18:19;999.71;;;-4.59;73.42
76026;BME280;64721;51.084;17.242;2022-11-20T01:20:33;999.75;;;-4.60;73.39
76026;BME280;64721;51.084;17.242;2022-11-20T01:22:33;999.80;;;-4.51;73.34
76026;BME280;64721;51.084;17.242;2022-11-20T01:24:30;999.75;;;-4.60;73.27
76026;BME280;64721;51.084;17.242;2022-11-20T01:26:16;999.79;;;-4.59;73.46
76026;BME280;64721;51.084;17.242;2022-11-20T01:28:15;999.76;;;-4.63;73.45
76026;BME280;64721;51.084;17.242;2022-11-20T01:30:17;999.79;;;-4.61;73.36
76026;BME280;64721;51.084;17.242;2022-11-20T01:32:20;999.76;;;-4.60;73.34
76026;BME280;64721;51.084;17.242;2022-11-20T01:34:20;999.69;;;-4.62;73.29
76026;BME280;64721;51.084;17.242;2022-11-20T01:36:08;999.71;;;-4.64;73.35
76026;BME280;64721;51.084;17.242;2022-11-20T01:38:07;999.70;;;-4.62;73.22
76026;BME280;64721;51.084;17.242;2022-11-20T01:39:53;999.67;;;-4.65;73.46
76026;BME280;64721;51.084;17.242;2022-11-20T01:41:37;999.65;;;-4.66;73.45
76026;BME280;64721;51.084;17.242;2022-11-20T01:43:52;999.61;;;-4.64;73.25
76026;BME280;64721;51.084;17.242;2022-11-20T01:47:32;999.61;;;-4.70;73.32
76026;BME280;64721;51.084;17.242;2022-11-20T01:49:46;999.63;;;-4.67;73.34
76026;BME280;64721;51.084;17.242;2022-11-20T01:51:45;999.65;;;-4.66;73.27
76026;BME280;64721;51.084;17.242;2022-11-20T01:58:03;999.66;;;-4.81;73.51
76026;BME280;64721;51.084;17.242;2022-11-20T02:02:37;999.61;;;-4.87;73.81
76026;BME280;64721;51.084;17.242;2022-11-20T02:06:35;999.64;;;-4.76;73.59
76026;BME280;64721;51.084;17.242;2022-11-20T02:08:20;999.62;;;-4.75;73.67
76026;BME280;64721;51.084;17.242;2022-11-20T02:10:32;999.60;;;-4.75;73.56
76026;BME280;64721;51.084;17.242;2022-11-20T02:13:03;999.62;;;-4.74;73.42
76026;BME280;64721;51.084;17.242;2022-11-20T02:15:01;999.57;;;-4.79;73.65
76026;BME280;64721;51.084;17.242;2022-11-20T02:16:48;999.56;;;-4.73;73.58
76026;BME280;64721;51.084;17.242;2022-11-20T02:19:01;999.55;;;-4.81;73.58
76026;BME280;64721;51.084;17.242;2022-11-20T02:21:14;999.48;;;-4.82;73.58
76026;BME280;64721;51.084;17.242;2022-11-20T02:23:22;999.49;;;-4.79;73.37
76026;BME280;64721;51.084;17.242;2022-11-20T02:25:12;999.45;;;-4.79;73.46
76026;BME280;64721;51.084;17.242;2022-11-20T02:27:51;999.48;;;-4.86;73.51
76026;BME280;64721;51.084;17.242;2022-11-20T02:29:50;999.44;;;-4.85;73.63
76026;BME280;64721;51.084;17.242;2022-11-20T02:31:49;999.39;;;-4.77;73.52
76026;BME280;64721;51.084;17.242;2022-11-20T02:33:53;999.46;;;-4.76;73.29
76026;BME280;64721;51.084;17.242;2022-11-20T02:36:13;999.48;;;-4.76;73.28
76026;BME280;64721;51.084;17.242;2022-11-20T02:37:58;999.51;;;-4.79;73.31
76026;BME280;64721;51.084;17.242;2022-11-20T02:39:58;999.47;;;-4.73;73.23
76026;BME280;64721;51.084;17.242;2022-11-20T02:41:55;999.50;;;-4.77;73.13
76026;BME280;64721;51.084;17.242;2022-11-20T02:43:40;999.45;;;-4.77;73.27
76026;BME280;64721;51.084;17.242;2022-11-20T02:45:51;999.53;;;-4.80;73.22
76026;BME280;64721;51.084;17.242;2022-11-20T02:47:49;999.50;;;-4.76;73.06
76026;BME280;64721;51.084;17.242;2022-11-20T02:50:01;999.47;;;-4.78;73.09
76026;BME280;64721;51.084;17.242;2022-11-20T02:51:59;999.49;;;-4.79;73.11
76026;BME280;64721;51.084;17.242;2022-11-20T02:53:43;999.50;;;-4.75;72.99
76026;BME280;64721;51.084;17.242;2022-11-20T02:55:56;999.47;;;-4.89;73.20
76026;BME280;64721;51.084;17.242;2022-11-20T02:57:40;999.53;;;-4.92;73.55
76026;BME280;64721;51.084;17.242;2022-11-20T03:00:05;999.48;;;-4.95;73.59
76026;BME280;64721;51.084;17.242;2022-11-20T03:01:49;999.51;;;-4.89;73.54
76026;BME280;64721;51.084;17.242;2022-11-20T03:04:42;999.52;;;-4.94;73.44
76026;BME280;64721;51.084;17.242;2022-11-20T03:06:40;999.49;;;-4.92;73.64
76026;BME280;64721;51.084;17.242;2022-11-20T03:08:25;999.50;;;-4.87;73.45
76026;BME280;64721;51.084;17.242;2022-11-20T03:10:10;999.47;;;-4.91;73.38
76026;BME280;64721;51.084;17.242;2022-11-20T03:11:54;999.46;;;-4.99;73.53
76026;BME280;64721;51.084;17.242;2022-11-20T03:13:51;999.44;;;-5.04;73.50
76026;BME280;64721;51.084;17.242;2022-11-20T03:15:48;999.45;;;-5.05;73.51
76026;BME280;64721;51.084;17.242;2022-11-20T03:17:33;999.47;;;-5.07;73.61
76026;BME280;64721;51.084;17.242;2022-11-20T03:19:31;999.45;;;-5.16;73.54
76026;BME280;64721;51.084;17.242;2022-11-20T03:21:17;999.47;;;-5.17;73.66
76026;BME280;64721;51.084;17.242;2022-11-20T03:23:15;999.49;;;-5.23;73.51
76026;BME280;64721;51.084;17.242;2022-11-20T03:25:19;999.51;;;-5.25;73.65
76026;BME280;64721;51.084;17.242;2022-11-20T03:27:16;999.48;;;-5.27;73.73
76026;BME280;64721;51.084;17.242;2022-11-20T03:29:26;999.47;;;-5.33;73.82
76026;BME280;64721;51.084;17.242;2022-11-20T03:31:25;999.47;;;-5.31;73.88
76026;BME280;64721;51.084;17.242;2022-11-20T03:33:23;999.48;;;-5.30;73.84
76026;BME280;64721;51.084;17.242;2022-11-20T03:35:21;999.51;;;-5.30;73.74
76026;BME280;64721;51.084;17.242;2022-11-20T03:37:20;999.50;;;-5.31;73.71
76026;BME280;64721;51.084;17.242;2022-11-20T03:39:34;999.48;;;-5.33;73.68
76026;BME280;64721;51.084;17.242;2022-11-20T03:41:46;999.51;;;-5.35;73.77
76026;BME280;64721;51.084;17.242;2022-11-20T03:43:46;999.49;;;-5.32;73.79
76026;BME280;64721;51.084;17.242;2022-11-20T03:45:45;999.49;;;-5.35;73.66
76026;BME280;64721;51.084;17.242;2022-11-20T03:47:42;999.43;;;-5.40;73.59
76026;BME280;64721;51.084;17.242;2022-11-20T03:49:54;999.50;;;-5.52;73.93
76026;BME280;64721;51.084;17.242;2022-11-20T03:51:38;999.52;;;-5.56;74.21
76026;BME280;64721;51.084;17.242;2022-11-20T03:53:35;999.47;;;-5.45;73.92
76026;BME280;64721;51.084;17.242;2022-11-20T03:55:47;999.45;;;-5.47;73.73
76026;BME280;64721;51.084;17.242;2022-11-20T03:57:47;999.49;;;-5.47;73.64
76026;BME280;64721;51.084;17.242;2022-11-20T03:59:32;999.47;;;-5.52;73.80
76026;BME280;64721;51.084;17.242;2022-11-20T04:01:32;999.47;;;-5.53;73.81
76026;BME280;64721;51.084;17.242;2022-11-20T04:03:30;999.47;;;-5.55;73.76
76026;BME280;64721;51.084;17.242;2022-11-20T04:05:30;999.45;;;-5.68;74.06
76026;BME280;64721;51.084;17.242;2022-11-20T04:07:18;999.47;;;-5.57;73.93
76026;BME280;64721;51.084;17.242;2022-11-20T04:09:15;999.46;;;-5.65;73.94
76026;BME280;64721;51.084;17.242;2022-11-20T04:11:14;999.44;;;-5.69;74.13
76026;BME280;64721;51.084;17.242;2022-11-20T04:13:15;999.44;;;-5.75;74.37
76026;BME280;64721;51.084;17.242;2022-11-20T04:15:28;999.48;;;-5.75;74.45
76026;BME280;64721;51.084;17.242;2022-11-20T04:19:23;999.47;;;-5.71;74.16
76026;BME280;64721;51.084;17.242;2022-11-20T04:21:07;999.49;;;-5.68;74.16
76026;BME280;64721;51.084;17.242;2022-11-20T04:23:18;999.45;;;-5.76;74.45
76026;BME280;64721;51.084;17.242;2022-11-20T04:25:03;999.49;;;-5.67;74.15
76026;BME280;64721;51.084;17.242;2022-11-20T04:26:47;999.51;;;-5.65;73.99
76026;BME280;64721;51.084;17.242;2022-11-20T04:28:54;999.51;;;-5.74;74.01
76026;BME280;64721;51.084;17.242;2022-11-20T04:30:51;999.55;;;-5.72;73.97
76026;BME280;64721;51.084;17.242;2022-11-20T04:32:52;999.57;;;-5.75;73.90
76026;BME280;64721;51.084;17.242;2022-11-20T04:34:36;999.54;;;-5.73;73.97
76026;BME280;64721;51.084;17.242;2022-11-20T04:36:33;999.56;;;-5.73;73.80
76026;BME280;64721;51.084;17.242;2022-11-20T04:38:30;999.54;;;-5.80;74.00
76026;BME280;64721;51.084;17.242;2022-11-20T04:41:02;999.52;;;-5.71;73.75
76026;BME280;64721;51.084;17.242;2022-11-20T04:43:02;999.51;;;-5.73;73.86
76026;BME280;64721;51.084;17.242;2022-11-20T04:45:45;999.44;;;-5.73;73.79
76026;BME280;64721;51.084;17.242;2022-11-20T04:47:35;999.42;;;-5.75;74.18
76026;BME280;64721;51.084;17.242;2022-11-20T04:49:33;999.41;;;-5.63;74.27
76026;BME280;64721;51.084;17.242;2022-11-20T04:51:32;999.40;;;-5.48;73.85
76026;BME280;64721;51.084;17.242;2022-11-20T04:53:16;999.31;;;-5.46;73.66
76026;BME280;64721;51.084;17.242;2022-11-20T04:55:13;999.31;;;-5.54;73.41
76026;BME280;64721;51.084;17.242;2022-11-20T04:56:57;999.27;;;-5.65;73.63
76026;BME280;64721;51.084;17.242;2022-11-20T04:58:56;999.26;;;-5.84;73.98
76026;BME280;64721;51.084;17.242;2022-11-20T05:00:58;999.29;;;-5.85;74.08
76026;BME280;64721;51.084;17.242;2022-11-20T05:02:58;999.33;;;-5.81;73.93
76026;BME280;64721;51.084;17.242;2022-11-20T05:04:42;999.25;;;-5.81;73.79
76026;BME280;64721;51.084;17.242;2022-11-20T05:06:39;999.28;;;-5.85;73.78
76026;BME280;64721;51.084;17.242;2022-11-20T05:08:36;999.26;;;-5.83;73.60
76026;BME280;64721;51.084;17.242;2022-11-20T05:10:43;999.19;;;-5.89;73.69
76026;BME280;64721;51.084;17.242;2022-11-20T05:12:42;999.19;;;-5.94;73.69
76026;BME280;64721;51.084;17.242;2022-11-20T05:14:39;999.16;;;-6.00;74.00
76026;BME280;64721;51.084;17.242;2022-11-20T05:16:37;999.17;;;-5.95;73.84
76026;BME280;64721;51.084;17.242;2022-11-20T05:18:38;999.17;;;-5.92;73.71
76026;BME280;64721;51.084;17.242;2022-11-20T05:20:33;999.13;;;-5.93;73.68
76026;BME280;64721;51.084;17.242;2022-11-20T05:22:31;999.19;;;-5.82;73.31
76026;BME280;64721;51.084;17.242;2022-11-20T05:24:43;999.14;;;-5.95;73.30
76026;BME280;64721;51.084;17.242;2022-11-20T05:26:40;999.12;;;-5.95;73.44
76026;BME280;64721;51.084;17.242;2022-11-20T05:28:48;999.11;;;-5.91;73.30
76026;BME280;64721;51.084;17.242;2022-11-20T05:30:46;999.13;;;-5.94;73.32
76026;BME280;64721;51.084;17.242;2022-11-20T05:32:45;999.13;;;-5.99;73.43
76026;BME280;64721;51.084;17.242;2022-11-20T05:34:43;999.08;;;-5.94;73.48
76026;BME280;64721;51.084;17.242;2022-11-20T05:36:54;999.09;;;-5.93;73.21
76026;BME280;64721;51.084;17.242;2022-11-20T05:38:52;999.11;;;-6.00;73.34
76026;BME280;64721;51.084;17.242;2022-11-20T05:40:49;999.12;;;-5.98;73.38
76026;BME280;64721;51.084;17.242;2022-11-20T05:42:35;999.10;;;-5.96;73.26
76026;BME280;64721;51.084;17.242;2022-11-20T05:44:32;999.10;;;-6.11;73.27
76026;BME280;64721;51.084;17.242;2022-11-20T05:46:29;999.06;;;-6.01;73.24
76026;BME280;64721;51.084;17.242;2022-11-20T05:48:54;999.06;;;-6.10;73.21
76026;BME280;64721;51.084;17.242;2022-11-20T05:50:39;999.06;;;-6.09;73.39
76026;BME280;64721;51.084;17.242;2022-11-20T05:52:50;999.07;;;-6.01;73.17
76026;BME280;64721;51.084;17.242;2022-11-20T05:54:48;999.04;;;-6.06;73.37
76026;BME280;64721;51.084;17.242;2022-11-20T05:57:00;999.06;;;-5.99;73.28
76026;BME280;64721;51.084;17.242;2022-11-20T05:59:00;998.99;;;-6.02;73.25
76026;BME280;64721;51.084;17.242;2022-11-20T06:00:50;998.99;;;-5.97;73.20
76026;BME280;64721;51.084;17.242;2022-11-20T06:02:48;998.94;;;-6.03;73.19
76026;BME280;64721;51.084;17.242;2022-11-20T06:04:39;998.93;;;-6.04;73.27
76026;BME280;64721;51.084;17.242;2022-11-20T06:06:37;998.93;;;-6.05;73.25
76026;BME280;64721;51.084;17.242;2022-11-20T06:08:28;998.92;;;-6.07;73.46
76026;BME280;64721;51.084;17.242;2022-11-20T06:10:41;998.88;;;-6.05;73.32
76026;BME280;64721;51.084;17.242;2022-11-20T06:12:39;998.94;;;-6.06;73.32
76026;BME280;64721;51.084;17.242;2022-11-20T06:14:49;998.90;;;-6.03;73.28
76026;BME280;64721;51.084;17.242;2022-11-20T06:16:48;998.95;;;-6.02;73.43
76026;BME280;64721;51.084;17.242;2022-11-20T06:18:32;998.90;;;-6.03;73.33
76026;BME280;64721;51.084;17.242;2022-11-20T06:21:45;998.86;;;-6.08;73.60
76026;BME280;64721;51.084;17.242;2022-11-20T06:23:31;998.88;;;-5.96;73.58
76026;BME280;64721;51.084;17.242;2022-11-20T06:25:30;998.86;;;-5.92;73.22
76026;BME280;64721;51.084;17.242;2022-11-20T06:27:30;998.89;;;-5.96;73.29
76026;BME280;64721;51.084;17.242;2022-11-20T06:29:29;998.83;;;-5.89;73.21
76026;BME280;64721;51.084;17.242;2022-11-20T06:31:28;998.87;;;-5.97;73.00
76026;BME280;64721;51.084;17.242;2022-11-20T06:33:12;998.86;;;-5.92;73.21
76026;BME280;64721;51.084;17.242;2022-11-20T06:34:56;998.85;;;-5.90;73.08
76026;BME280;64721;51.084;17.242;2022-11-20T06:37:22;998.83;;;-5.90;72.92
76026;BME280;64721;51.084;17.242;2022-11-20T06:39:21;998.83;;;-5.85;72.98
76026;BME280;64721;51.084;17.242;2022-11-20T06:41:48;998.88;;;-5.76;72.59
76026;BME280;64721;51.084;17.242;2022-11-20T06:43:32;998.91;;;-5.74;72.86
76026;BME280;64721;51.084;17.242;2022-11-20T06:45:16;998.89;;;-5.73;72.77
76026;BME280;64721;51.084;17.242;2022-11-20T06:47:04;998.88;;;-5.64;72.57
76026;BME280;64721;51.084;17.242;2022-11-20T06:48:57;998.88;;;-5.68;72.52
76026;BME280;64721;51.084;17.242;2022-11-20T06:50:55;998.87;;;-5.64;72.53
76026;BME280;64721;51.084;17.242;2022-11-20T06:52:53;998.84;;;-5.59;72.44
76026;BME280;64721;51.084;17.242;2022-11-20T06:55:06;998.85;;;-5.58;72.64
76026;BME280;64721;51.084;17.242;2022-11-20T06:57:06;998.89;;;-5.50;72.59
76026;BME280;64721;51.084;17.242;2022-11-20T06:59:03;998.89;;;-5.34;72.30
76026;BME280;64721;51.084;17.242;2022-11-20T07:00:53;998.91;;;-5.26;72.14
76026;BME280;64721;51.084;17.242;2022-11-20T07:02:51;998.90;;;-5.17;71.79
76026;BME280;64721;51.084;17.242;2022-11-20T07:04:48;999.01;;;-5.13;71.85
76026;BME280;64721;51.084;17.242;2022-11-20T07:07:00;998.98;;;-5.15;72.06
76026;BME280;64721;51.084;17.242;2022-11-20T07:08:44;998.93;;;-5.06;72.16
76026;BME280;64721;51.084;17.242;2022-11-20T07:10:42;998.91;;;-4.95;71.81
76026;BME280;64721;51.084;17.242;2022-11-20T07:12:27;998.94;;;-4.89;71.77
76026;BME280;64721;51.084;17.242;2022-11-20T07:14:26;998.98;;;-4.93;71.95
76026;BME280;64721;51.084;17.242;2022-11-20T07:18:33;998.96;;;-4.73;71.77
76026;BME280;64721;51.084;17.242;2022-11-20T07:20:45;998.92;;;-4.67;71.76
76026;BME280;64721;51.084;17.242;2022-11-20T07:26:45;998.87;;;-4.53;71.83
76026;BME280;64721;51.084;17.242;2022-11-20T07:28:43;998.85;;;-4.44;71.79
76026;BME280;64721;51.084;17.242;2022-11-20T07:34:18;998.78;;;-4.19;71.52
76026;BME280;64721;51.084;17.242;2022-11-20T07:36:42;998.69;;;-4.09;71.71
76026;BME280;64721;51.084;17.242;2022-11-20T07:38:55;998.71;;;-3.89;71.62
76026;BME280;64721;51.084;17.242;2022-11-20T07:41:06;998.72;;;-3.69;71.58
76026;BME280;64721;51.084;17.242;2022-11-20T07:42:54;998.68;;;-3.57;71.51
76026;BME280;64721;51.084;17.242;2022-11-20T07:44:38;998.66;;;-3.45;71.35
76026;BME280;64721;51.084;17.242;2022-11-20T07:46:52;998.68;;;-3.37;71.19
76026;BME280;64721;51.084;17.242;2022-11-20T07:48:55;998.72;;;-3.39;71.62
76026;BME280;64721;51.084;17.242;2022-11-20T07:50:48;998.69;;;-3.27;71.50
76026;BME280;64721;51.084;17.242;2022-11-20T07:52:32;998.70;;;-3.17;71.34
76026;BME280;64721;51.084;17.242;2022-11-20T07:54:30;998.70;;;-3.11;71.21
76026;BME280;64721;51.084;17.242;2022-11-20T07:56:30;998.69;;;-3.08;71.24
76026;BME280;64721;51.084;17.242;2022-11-20T07:58:27;998.66;;;-3.10;71.59
76026;BME280;64721;51.084;17.242;2022-11-20T08:00:27;998.60;;;-3.04;71.65
76026;BME280;64721;51.084;17.242;2022-11-20T08:02:44;998.62;;;-2.94;71.62
76026;BME280;64721;51.084;17.242;2022-11-20T08:04:28;998.57;;;-2.75;71.32
76026;BME280;64721;51.084;17.242;2022-11-20T08:06:26;998.57;;;-2.75;71.34
76026;BME280;64721;51.084;17.242;2022-11-20T08:08:38;998.62;;;-2.76;71.60
76026;BME280;64721;51.084;17.242;2022-11-20T08:13:52;998.53;;;-2.58;71.82
76026;BME280;64721;51.084;17.242;2022-11-20T08:17:18;998.49;;;-2.38;71.41
76026;BME280;64721;51.084;17.242;2022-11-20T08:22:50;998.47;;;-2.34;71.93
76026;BME280;64721;51.084;17.242;2022-11-20T08:24:50;998.44;;;-2.25;72.04
76026;BME280;64721;51.084;17.242;2022-11-20T08:26:46;998.43;;;-2.15;71.90
76026;BME280;64721;51.084;17.242;2022-11-20T08:30:42;998.39;;;-1.91;71.79
76026;BME280;64721;51.084;17.242;2022-11-20T08:33:09;998.39;;;-1.86;71.99
76026;BME280;64721;51.084;17.242;2022-11-20T08:34:53;998.39;;;-1.74;72.01
76026;BME280;64721;51.084;17.242;2022-11-20T08:36:52;998.38;;;-1.64;71.80
76026;BME280;64721;51.084;17.242;2022-11-20T08:39:03;998.36;;;-1.51;71.41
76026;BME280;64721;51.084;17.242;2022-11-20T08:41:03;998.30;;;-1.41;71.68
76026;BME280;64721;51.084;17.242;2022-11-20T08:43:36;998.33;;;-1.38;71.83
76026;BME280;64721;51.084;17.242;2022-11-20T08:45:21;998.32;;;-1.25;71.87
76026;BME280;64721;51.084;17.242;2022-11-20T08:47:20;998.32;;;-1.25;71.90
76026;BME280;64721;51.084;17.242;2022-11-20T08:49:40;998.29;;;-1.12;71.76
76026;BME280;64721;51.084;17.242;2022-11-20T08:55:40;998.28;;;-0.99;72.01
76026;BME280;64721;51.084;17.242;2022-11-20T08:57:39;998.23;;;-1.03;72.32
76026;BME280;64721;51.084;17.242;2022-11-20T08:59:23;998.24;;;-0.96;72.34
76026;BME280;64721;51.084;17.242;2022-11-20T09:01:09;998.22;;;-0.90;72.45
76026;BME280;64721;51.084;17.242;2022-11-20T09:03:36;998.25;;;-0.86;72.43
76026;BME280;64721;51.084;17.242;2022-11-20T09:05:49;998.23;;;-0.75;72.51
76026;BME280;64721;51.084;17.242;2022-11-20T09:08:06;998.22;;;-0.61;72.51
76026;BME280;64721;51.084;17.242;2022-11-20T09:09:51;998.23;;;-0.52;72.50
76026;BME280;64721;51.084;17.242;2022-11-20T09:11:52;998.17;;;-0.38;72.15
76026;BME280;64721;51.084;17.242;2022-11-20T09:13:50;998.18;;;-0.36;72.20
76026;BME280;64721;51.084;17.242;2022-11-20T09:15:35;998.19;;;-0.34;72.25
76026;BME280;64721;51.084;17.242;2022-11-20T09:17:32;998.18;;;-0.28;72.21
76026;BME280;64721;51.084;17.242;2022-11-20T09:19:32;998.14;;;-0.28;72.31
76026;BME280;64721;51.084;17.242;2022-11-20T09:21:32;998.10;;;-0.07;71.97
76026;BME280;64721;51.084;17.242;2022-11-20T09:24:54;998.15;;;0.03;71.91
76026;BME280;64721;51.084;17.242;2022-11-20T09:26:52;998.13;;;0.24;71.71
76026;BME280;64721;51.084;17.242;2022-11-20T09:28:50;998.17;;;0.42;70.89
76026;BME280;64721;51.084;17.242;2022-11-20T09:30:44;998.10;;;0.29;71.03
76026;BME280;64721;51.084;17.242;2022-11-20T09:32:56;998.07;;;0.24;70.73
76026;BME280;64721;51.084;17.242;2022-11-20T09:34:56;998.04;;;0.29;71.02
76026;BME280;64721;51.084;17.242;2022-11-20T09:36:40;998.01;;;0.36;71.41
76026;BME280;64721;51.084;17.242;2022-11-20T09:38:25;998.03;;;0.38;71.63
76026;BME280;64721;51.084;17.242;2022-11-20T09:40:19;997.97;;;0.46;71.29
76026;BME280;64721;51.084;17.242;2022-11-20T09:42:11;997.97;;;0.46;71.61
76026;BME280;64721;51.084;17.242;2022-11-20T09:45:30;997.97;;;0.62;71.70
76026;BME280;64721;51.084;17.242;2022-11-20T09:48:43;997.90;;;0.75;71.58
76026;BME280;64721;51.084;17.242;2022-11-20T09:50:57;997.89;;;0.84;71.47
76026;BME280;64721;51.084;17.242;2022-11-20T09:54:52;997.77;;;0.88;71.98
76026;BME280;64721;51.084;17.242;2022-11-20T09:56:39;997.68;;;1.02;71.48
76026;BME280;64721;51.084;17.242;2022-11-20T09:58:31;997.68;;;0.98;71.00
76026;BME280;64721;51.084;17.242;2022-11-20T10:00:36;997.62;;;0.99;71.48
76026;BME280;64721;51.084;17.242;2022-11-20T10:02:37;997.67;;;1.06;71.56
76026;BME280;64721;51.084;17.242;2022-11-20T10:04:41;997.68;;;1.12;71.58
76026;BME280;64721;51.084;17.242;2022-11-20T10:06:28;997.65;;;1.17;70.56
76026;BME280;64721;51.084;17.242;2022-11-20T10:08:45;997.70;;;1.30;70.92
76026;BME280;64721;51.084;17.242;2022-11-20T10:10:38;997.69;;;1.33;71.16
76026;BME280;64721;51.084;17.242;2022-11-20T10:14:41;997.70;;;1.41;71.23
76026;BME280;64721;51.084;17.242;2022-11-20T10:17:10;997.68;;;1.66;70.14
76026;BME280;64721;51.084;17.242;2022-11-20T10:19:36;997.61;;;1.80;70.20
76026;BME280;64721;51.084;17.242;2022-11-20T10:22:47;997.55;;;1.91;69.61
76026;BME280;64721;51.084;17.242;2022-11-20T10:25:09;997.56;;;2.05;69.16
76026;BME280;64721;51.084;17.242;2022-11-20T10:27:03;997.55;;;1.96;70.12
76026;BME280;64721;51.084;17.242;2022-11-20T10:31:45;997.43;;;1.97;69.92
76026;BME280;64721;51.084;17.242;2022-11-20T10:33:38;997.38;;;2.13;69.16
76026;BME280;64721;51.084;17.242;2022-11-20T10:35:39;997.35;;;2.17;69.09
76026;BME280;64721;51.084;17.242;2022-11-20T10:37:34;997.33;;;2.21;68.47
76026;BME280;64721;51.084;17.242;2022-11-20T10:39:36;997.30;;;2.27;68.21
76026;BME280;64721;51.084;17.242;2022-11-20T10:41:49;997.21;;;2.32;68.02
76026;BME280;64721;51.084;17.242;2022-11-20T10:43:33;997.18;;;2.24;67.96
76026;BME280;64721;51.084;17.242;2022-11-20T10:45:56;997.15;;;2.29;67.80
76026;BME280;64721;51.084;17.242;2022-11-20T10:48:00;997.10;;;2.36;68.45
76026;BME280;64721;51.084;17.242;2022-11-20T10:50:11;997.10;;;2.35;68.15
76026;BME280;64721;51.084;17.242;2022-11-20T10:53:22;997.13;;;2.46;67.94
76026;BME280;64721;51.084;17.242;2022-11-20T10:55:39;997.10;;;2.76;67.08
76026;BME280;64721;51.084;17.242;2022-11-20T10:57:42;997.11;;;2.73;64.47
76026;BME280;64721;51.084;17.242;2022-11-20T11:00:01;997.08;;;2.92;65.16
76026;BME280;64721;51.084;17.242;2022-11-20T11:05:02;997.09;;;2.88;65.81
76026;BME280;64721;51.084;17.242;2022-11-20T11:06:58;997.07;;;2.94;63.56
76026;BME280;64721;51.084;17.242;2022-11-20T11:09:32;997.04;;;3.07;64.63
76026;BME280;64721;51.084;17.242;2022-11-20T11:12:42;997.02;;;3.14;64.92
76026;BME280;64721;51.084;17.242;2022-11-20T11:14:41;997.00;;;3.14;64.93
76026;BME280;64721;51.084;17.242;2022-11-20T11:16:53;996.93;;;3.17;64.72
76026;BME280;64721;51.084;17.242;2022-11-20T11:18:39;996.95;;;3.27;64.42
76026;BME280;64721;51.084;17.242;2022-11-20T11:20:54;996.96;;;3.19;63.11
76026;BME280;64721;51.084;17.242;2022-11-20T11:23:22;996.97;;;3.21;61.31
76026;BME280;64721;51.084;17.242;2022-11-20T11:25:07;996.91;;;3.23;61.92
76026;BME280;64721;51.084;17.242;2022-11-20T11:26:50;996.93;;;3.34;62.15
76026;BME280;64721;51.084;17.242;2022-11-20T11:30:25;996.89;;;3.33;61.77
76026;BME280;64721;51.084;17.242;2022-11-20T11:32:13;996.83;;;3.41;61.14
76026;BME280;64721;51.084;17.242;2022-11-20T11:34:26;996.78;;;3.45;61.53
76026;BME280;64721;51.084;17.242;2022-11-20T11:36:30;996.80;;;3.57;61.14
76026;BME280;64721;51.084;17.242;2022-11-20T11:39:31;996.77;;;3.47;61.65
76026;BME280;64721;51.084;17.242;2022-11-20T11:41:41;996.75;;;3.57;60.86
76026;BME280;64721;51.084;17.242;2022-11-20T11:44:12;996.58;;;3.61;61.60
76026;BME280;64721;51.084;17.242;2022-11-20T11:46:52;996.51;;;3.71;62.03
76026;BME280;64721;51.084;17.242;2022-11-20T11:48:44;996.52;;;3.80;61.28